createdAt,value
2018-03-03T00:01:58.589Z,40.30
2018-03-03T00:04:32.604Z,35.40
2018-03-03T00:07:06.438Z,35.67
2018-03-03T00:09:40.111Z,21.43
2018-03-03T00:12:14.687Z,41.50
2018-03-03T00:14:48.479Z,32.80
2018-03-03T00:17:23.022Z,47.27
2018-03-03T00:19:57.866Z,49.53
2018-03-03T00:22:40.686Z,15.10
2018-03-03T00:25:15.606Z,55.83
2018-03-03T00:27:49.680Z,49.40
2018-03-03T00:30:24.322Z,42.97
2018-03-03T00:32:58.419Z,45.23
2018-03-03T00:35:33.009Z,40.87
2018-03-03T00:38:06.824Z,56.17
2018-03-03T00:40:40.547Z,32.67
2018-03-03T00:43:14.184Z,36.77
2018-03-03T00:45:48.053Z,42.40
2018-03-03T00:48:22.992Z,43.20
2018-03-03T00:50:56.783Z,33.23
2018-03-03T00:53:30.609Z,45.37
2018-03-03T00:56:04.624Z,40.17
2018-03-03T00:58:39.040Z,45.17
2018-03-03T01:01:12.700Z,41.87
2018-03-03T01:03:47.313Z,48.10
2018-03-03T01:06:21.532Z,38.93
2018-03-03T01:08:55.300Z,46.97
2018-03-03T01:11:29.189Z,40.03
2018-03-03T01:14:02.976Z,35.03
2018-03-03T01:16:37.772Z,32.90
2018-03-03T01:19:11.716Z,44.77
2018-03-03T01:21:46.440Z,33.33
2018-03-03T01:24:20.470Z,40.97
2018-03-03T01:26:55.143Z,38.20
2018-03-03T01:29:30.041Z,34.83
2018-03-03T01:32:03.835Z,51.10
2018-03-03T01:34:37.673Z,37.10
2018-03-03T01:37:11.405Z,28.30
2018-03-03T01:39:45.248Z,52.70
2018-03-03T01:42:18.856Z,48.40
2018-03-03T01:44:52.567Z,42.73
2018-03-03T01:47:26.217Z,34.13
2018-03-03T01:50:00.040Z,51.07
2018-03-03T01:52:33.915Z,46.70
2018-03-03T01:55:07.690Z,46.63
2018-03-03T01:57:41.256Z,36.13
2018-03-03T02:00:14.970Z,44.87
2018-03-03T02:02:49.264Z,43.97
2018-03-03T02:05:23.560Z,42.77
2018-03-03T02:07:57.438Z,44.83
2018-03-03T02:10:32.096Z,51.53
2018-03-03T02:13:06.015Z,46.37
2018-03-03T02:15:40.636Z,27.83
2018-03-03T02:18:14.639Z,46.50
2018-03-03T02:20:49.281Z,45.37
2018-03-03T02:23:23.174Z,49.60
2018-03-03T02:25:57.869Z,47.13
2018-03-03T02:28:31.831Z,43.63
2018-03-03T02:31:06.351Z,52.77
2018-03-03T02:33:41.492Z,49.90
2018-03-03T02:36:16.526Z,31.17
2018-03-03T02:38:50.907Z,37.43
2018-03-03T02:41:25.755Z,35.27
2018-03-03T02:44:01.062Z,40.30
2018-03-03T02:46:34.664Z,49.20
2018-03-03T02:49:08.984Z,46.83
2018-03-03T02:51:43.367Z,26.97
2018-03-03T02:54:17.183Z,45.17
2018-03-03T02:56:50.867Z,61.80
2018-03-03T02:59:24.562Z,32.07
2018-03-03T03:01:58.280Z,30.77
2018-03-03T03:04:32.016Z,52.80
2018-03-03T03:07:06.445Z,39.40
2018-03-03T03:09:41.157Z,53.00
2018-03-03T03:12:15.236Z,38.27
2018-03-03T03:14:48.902Z,35.00
2018-03-03T03:17:22.502Z,50.83
2018-03-03T03:19:56.650Z,32.27
2018-03-03T03:22:30.956Z,47.87
2018-03-03T03:25:04.465Z,35.10
2018-03-03T03:27:38.381Z,45.77
2018-03-03T03:30:12.941Z,39.30
2018-03-03T03:32:47.359Z,42.03
2018-03-03T03:35:22.286Z,46.40
2018-03-03T03:37:56.247Z,41.37
2018-03-03T03:40:29.839Z,39.93
2018-03-03T03:43:03.656Z,34.20
2018-03-03T03:45:38.022Z,38.10
2018-03-03T03:48:12.778Z,33.00
2018-03-03T03:50:46.802Z,39.03
2018-03-03T03:53:20.699Z,39.47
2018-03-03T03:55:54.686Z,48.53
2018-03-03T03:58:29.806Z,49.07
2018-03-03T04:01:03.915Z,39.33
2018-03-03T04:03:37.747Z,47.80
2018-03-03T04:06:11.542Z,45.70
2018-03-03T04:08:45.379Z,37.23
2018-03-03T04:11:18.926Z,33.13
2018-03-03T04:13:52.643Z,29.60
2018-03-03T04:16:26.405Z,47.67
2018-03-03T04:19:01.208Z,39.90
2018-03-03T04:21:35.315Z,30.20
2018-03-03T04:24:09.081Z,35.87
2018-03-03T04:26:43.089Z,50.67
2018-03-03T04:29:16.956Z,55.00
2018-03-03T04:31:50.959Z,58.60
2018-03-03T04:34:25.512Z,55.70
2018-03-03T04:37:00.000Z,32.67
2018-03-03T04:39:35.090Z,45.20
2018-03-03T04:42:09.766Z,52.17
2018-03-03T04:44:43.671Z,33.90
2018-03-03T04:47:17.448Z,46.53
2018-03-03T04:49:51.087Z,40.17
2018-03-03T04:52:25.022Z,45.47
2018-03-03T04:54:59.506Z,52.23
2018-03-03T04:57:33.295Z,58.60
2018-03-03T05:00:12.733Z,43.40
2018-03-03T05:06:10.070Z,52.97
2018-03-03T05:08:43.884Z,47.47
2018-03-03T05:11:18.356Z,56.40
2018-03-03T05:16:53.514Z,56.23
2018-03-03T05:19:48.746Z,43.30
2018-03-03T05:22:43.139Z,66.40
2018-03-03T05:25:21.312Z,41.70
2018-03-03T05:28:01.666Z,59.73
2018-03-03T05:33:45.661Z,40.87
2018-03-03T05:36:38.144Z,59.67
2018-03-03T05:39:13.864Z,62.10
2018-03-03T05:41:53.620Z,61.10
2018-03-03T05:44:43.308Z,65.57
2018-03-03T05:50:35.710Z,43.10
2018-03-03T05:56:29.470Z,78.67
2018-03-03T05:59:09.317Z,46.50
2018-03-03T06:01:45.292Z,83.57
2018-03-03T06:04:25.739Z,33.63
2018-03-03T06:07:03.384Z,49.20
2018-03-03T06:09:39.491Z,49.77
2018-03-03T06:12:14.648Z,39.27
2018-03-03T06:14:48.496Z,39.20
2018-03-03T06:17:22.510Z,47.20
2018-03-03T06:19:56.953Z,42.07
2018-03-03T06:22:30.618Z,45.87
2018-03-03T06:25:04.419Z,52.50
2018-03-03T06:27:37.974Z,36.17
2018-03-03T06:30:12.642Z,82.70
2018-03-03T06:32:48.010Z,59.43
2018-03-03T06:35:22.711Z,52.63
2018-03-03T06:37:56.648Z,60.50
2018-03-03T06:40:30.493Z,60.90
2018-03-03T06:43:04.339Z,52.37
2018-03-03T06:45:38.093Z,54.27
2018-03-03T06:48:12.052Z,58.77
2018-03-03T06:50:46.396Z,40.70
2018-03-03T06:53:21.035Z,48.83
2018-03-03T06:55:54.997Z,64.93
2018-03-03T06:58:28.811Z,64.10
2018-03-03T07:01:02.571Z,35.00
2018-03-03T07:03:36.413Z,41.73
2018-03-03T07:06:11.035Z,55.83
2018-03-03T07:08:44.973Z,57.07
2018-03-03T07:11:18.745Z,58.33
2018-03-03T07:13:53.989Z,43.20
2018-03-03T07:16:28.208Z,52.20
2018-03-03T07:19:02.008Z,60.17
2018-03-03T07:21:35.639Z,49.27
2018-03-03T07:24:09.402Z,53.13
2018-03-03T07:26:43.048Z,63.23
2018-03-03T07:29:17.220Z,39.90
2018-03-03T07:31:51.177Z,56.10
2018-03-03T07:34:25.582Z,54.57
2018-03-03T07:37:00.480Z,58.90
2018-03-03T07:39:34.219Z,46.30
2018-03-03T07:42:08.722Z,54.10
2018-03-03T07:44:42.748Z,59.53
2018-03-03T07:47:16.514Z,59.27
2018-03-03T07:49:50.935Z,57.50
2018-03-03T07:52:24.714Z,54.87
2018-03-03T07:54:59.239Z,39.97
2018-03-03T07:57:34.019Z,65.73
2018-03-03T08:00:08.124Z,64.80
2018-03-03T08:02:42.554Z,42.00
2018-03-03T08:05:17.047Z,60.13
2018-03-03T08:07:51.874Z,45.90
2018-03-03T08:10:25.723Z,54.80
2018-03-03T08:12:59.395Z,77.37
2018-03-03T08:15:33.284Z,58.20
2018-03-03T08:18:06.847Z,70.80
2018-03-03T08:20:40.403Z,75.63
2018-03-03T08:23:14.178Z,51.50
2018-03-03T08:25:47.835Z,37.67
2018-03-03T08:28:22.484Z,55.17
2018-03-03T08:30:57.039Z,44.93
2018-03-03T08:33:32.400Z,63.97
2018-03-03T08:36:08.300Z,57.83
2018-03-03T08:38:43.702Z,61.03
2018-03-03T08:41:18.867Z,60.73
2018-03-03T08:43:53.568Z,60.23
2018-03-03T08:46:27.783Z,68.50
2018-03-03T08:49:02.190Z,58.60
2018-03-03T08:51:36.044Z,59.97
2018-03-03T08:54:09.731Z,49.87
2018-03-03T08:56:43.234Z,48.67
2018-03-03T08:59:17.744Z,55.90
2018-03-03T09:01:51.558Z,51.00
2018-03-03T09:04:26.130Z,51.90
2018-03-03T09:06:59.885Z,55.57
2018-03-03T09:09:33.767Z,63.53
2018-03-03T09:12:09.094Z,64.37
2018-03-03T09:14:43.858Z,63.77
2018-03-03T09:17:18.639Z,61.47
2018-03-03T09:19:52.648Z,70.43
2018-03-03T09:22:26.441Z,62.47
2018-03-03T09:25:00.402Z,62.67
2018-03-03T09:27:33.907Z,67.70
2018-03-03T09:30:08.176Z,68.17
2018-03-03T09:32:42.806Z,69.30
2018-03-03T09:35:16.912Z,68.70
2018-03-03T09:37:51.350Z,70.97
2018-03-03T09:40:26.060Z,74.43
2018-03-03T09:43:00.823Z,62.87
2018-03-03T09:45:34.723Z,63.80
2018-03-03T09:48:09.996Z,51.00
2018-03-03T09:50:45.931Z,57.67
2018-03-03T09:53:19.696Z,67.57
2018-03-03T09:55:53.468Z,68.80
2018-03-03T09:58:26.955Z,54.30
2018-03-03T10:01:00.672Z,74.57
2018-03-03T10:03:34.318Z,59.47
2018-03-03T10:06:08.255Z,62.47
2018-03-03T10:08:41.893Z,71.17
2018-03-03T10:11:19.312Z,73.83
2018-03-03T10:13:53.102Z,66.00
2018-03-03T10:16:26.873Z,61.27
2018-03-03T10:19:00.450Z,74.57
2018-03-03T10:21:34.886Z,67.07
2018-03-03T10:24:09.365Z,66.40
2018-03-03T10:26:43.429Z,78.17
2018-03-03T10:29:18.048Z,71.37
2018-03-03T10:31:52.301Z,71.93
2018-03-03T10:34:26.780Z,67.20
2018-03-03T10:37:00.422Z,64.20
2018-03-03T10:39:34.016Z,71.10
2018-03-03T10:42:07.800Z,59.33
2018-03-03T10:44:41.498Z,68.37
2018-03-03T10:47:15.182Z,63.33
2018-03-03T10:49:49.024Z,58.40
2018-03-03T10:52:22.687Z,57.60
2018-03-03T10:54:56.422Z,65.53
2018-03-03T10:57:30.106Z,64.77
2018-03-03T11:00:03.908Z,61.77
2018-03-03T11:02:37.704Z,65.00
2018-03-03T11:05:11.319Z,72.17
2018-03-03T11:07:45.096Z,69.80
2018-03-03T11:10:19.781Z,70.03
2018-03-03T11:12:53.645Z,59.53
2018-03-03T11:15:28.068Z,66.50
2018-03-03T11:18:01.967Z,71.77
2018-03-03T11:20:35.760Z,56.90
2018-03-03T11:23:09.539Z,70.63
2018-03-03T11:25:44.076Z,73.70
2018-03-03T11:28:18.103Z,75.37
2018-03-03T11:30:53.515Z,74.33
2018-03-03T11:33:27.780Z,62.23
2018-03-03T11:36:01.373Z,64.23
2018-03-03T11:38:36.197Z,86.60
2018-03-03T11:41:10.694Z,69.37
2018-03-03T11:43:44.561Z,54.07
2018-03-03T11:46:19.914Z,65.60
2018-03-03T11:48:55.431Z,67.63
2018-03-03T11:51:30.629Z,76.50
2018-03-03T11:54:05.186Z,81.93
2018-03-03T11:56:40.099Z,61.53
2018-03-03T11:59:14.212Z,54.30
2018-03-03T12:01:48.619Z,76.30
2018-03-03T12:04:23.507Z,66.77
2018-03-03T12:06:57.631Z,55.83
2018-03-03T12:09:31.839Z,56.37
2018-03-03T12:12:05.584Z,71.53
2018-03-03T12:14:39.320Z,65.87
2018-03-03T12:17:13.910Z,67.57
2018-03-03T12:19:47.876Z,66.47
2018-03-03T12:22:21.795Z,65.03
2018-03-03T12:24:55.574Z,76.27
2018-03-03T12:27:29.569Z,66.60
2018-03-03T12:30:03.203Z,62.13
2018-03-03T12:32:36.763Z,68.07
2018-03-03T12:35:10.381Z,72.37
2018-03-03T12:37:44.040Z,70.53
2018-03-03T12:40:18.480Z,60.63
2018-03-03T12:42:52.363Z,70.93
2018-03-03T12:45:25.934Z,74.30
2018-03-03T12:47:59.775Z,70.73
2018-03-03T12:50:33.416Z,67.97
2018-03-03T12:53:07.226Z,75.13
2018-03-03T12:55:41.028Z,71.23
2018-03-03T12:58:15.892Z,71.17
2018-03-03T13:00:50.387Z,72.70
2018-03-03T13:03:24.293Z,70.73
2018-03-03T13:05:58.701Z,69.43
2018-03-03T13:08:32.567Z,73.37
2018-03-03T13:11:07.104Z,61.67
2018-03-03T13:13:40.978Z,73.07
2018-03-03T13:16:14.652Z,57.93
2018-03-03T13:18:48.400Z,59.73
2018-03-03T13:21:22.106Z,67.67
2018-03-03T13:23:57.161Z,55.20
2018-03-03T13:26:31.460Z,75.17
2018-03-03T13:29:05.105Z,65.23
2018-03-03T13:31:38.975Z,65.10
2018-03-03T13:34:12.615Z,58.67
2018-03-03T13:36:46.307Z,65.90
2018-03-03T13:39:20.060Z,58.87
2018-03-03T13:41:55.203Z,54.33
2018-03-03T13:44:29.697Z,62.60
2018-03-03T13:47:03.401Z,63.40
2018-03-03T13:49:37.130Z,68.10
2018-03-03T13:52:11.609Z,61.80
2018-03-03T13:54:45.584Z,76.90
2018-03-03T13:57:19.418Z,68.50
2018-03-03T13:59:53.652Z,55.07
2018-03-03T14:02:28.555Z,46.10
2018-03-03T14:05:02.908Z,56.00
2018-03-03T14:07:37.252Z,58.60
2018-03-03T14:10:11.736Z,55.27
2018-03-03T14:12:46.392Z,63.57
2018-03-03T14:15:20.963Z,61.43
2018-03-03T14:17:54.967Z,58.07
2018-03-03T14:20:29.077Z,65.50
2018-03-03T14:23:04.275Z,53.83
2018-03-03T14:25:38.234Z,43.83
2018-03-03T14:28:12.476Z,57.30
2018-03-03T14:30:46.756Z,64.77
2018-03-03T14:33:20.556Z,68.23
2018-03-03T14:35:55.223Z,48.17
2018-03-03T14:38:29.945Z,50.77
2018-03-03T14:41:04.294Z,59.03
2018-03-03T14:43:38.785Z,61.47
2018-03-03T14:46:13.518Z,51.50
2018-03-03T14:48:47.220Z,49.10
2018-03-03T14:51:21.338Z,44.73
2018-03-03T14:53:55.681Z,50.43
2018-03-03T14:56:29.256Z,64.73
2018-03-03T14:59:03.053Z,40.00
2018-03-03T15:01:36.772Z,50.27
2018-03-03T15:04:11.120Z,52.30
2018-03-03T15:06:44.836Z,61.37
2018-03-03T15:09:18.583Z,50.73
2018-03-03T15:11:52.342Z,36.03
2018-03-03T15:14:26.761Z,44.60
2018-03-03T15:17:00.468Z,58.10
2018-03-03T15:19:34.292Z,47.70
2018-03-03T15:22:08.751Z,45.80
2018-03-03T15:24:42.740Z,44.30
2018-03-03T15:27:16.266Z,54.37
2018-03-03T15:29:49.899Z,48.00
2018-03-03T15:32:23.658Z,47.23
2018-03-03T15:34:57.267Z,39.00
2018-03-03T15:37:31.012Z,48.00
2018-03-03T15:40:04.670Z,34.63
2018-03-03T15:42:38.185Z,35.17
2018-03-03T15:45:11.738Z,37.70
2018-03-03T15:47:45.442Z,32.90
2018-03-03T15:50:19.086Z,31.03
2018-03-03T15:52:52.971Z,45.77
2018-03-03T15:55:26.634Z,43.70
2018-03-03T15:58:00.391Z,48.77
2018-03-03T16:00:34.043Z,40.13
2018-03-03T16:03:07.802Z,55.17
2018-03-03T16:05:41.437Z,41.77
2018-03-03T16:08:15.806Z,48.77
2018-03-03T16:10:49.578Z,45.07
2018-03-03T16:13:23.119Z,49.37
2018-03-03T16:15:57.898Z,39.83
2018-03-03T16:18:31.524Z,28.93
2018-03-03T16:21:05.176Z,33.17
2018-03-03T16:23:38.872Z,42.17
2018-03-03T16:26:13.435Z,34.33
2018-03-03T16:28:47.780Z,25.87
2018-03-03T16:31:22.159Z,32.50
2018-03-03T16:33:55.710Z,37.77
2018-03-03T16:36:29.709Z,36.63
2018-03-03T16:39:04.180Z,40.53
2018-03-03T16:41:38.632Z,44.73
2018-03-03T16:44:12.515Z,40.03
2018-03-03T16:46:46.956Z,35.33
2018-03-03T16:49:21.614Z,35.97
2018-03-03T16:51:55.819Z,42.13
2018-03-03T16:54:30.275Z,38.23
2018-03-03T16:57:04.819Z,38.90
2018-03-03T16:59:39.575Z,31.20
2018-03-03T17:02:14.583Z,31.90
2018-03-03T17:04:48.818Z,29.87
2018-03-03T17:07:22.463Z,28.70
2018-03-03T17:09:56.141Z,33.80
2018-03-03T17:12:29.903Z,40.17
2018-03-03T17:15:04.020Z,41.33
2018-03-03T17:17:39.217Z,36.00
2018-03-03T17:20:13.079Z,29.90
2018-03-03T17:22:46.764Z,46.40
2018-03-03T17:25:22.062Z,37.83
2018-03-03T17:27:57.262Z,39.93
2018-03-03T17:30:31.779Z,40.67
2018-03-03T17:33:05.742Z,35.20
2018-03-03T17:35:39.639Z,33.20
2018-03-03T17:38:13.451Z,35.37
2018-03-03T17:40:47.376Z,42.30
2018-03-03T17:43:20.948Z,40.97
2018-03-03T17:45:54.690Z,41.13
2018-03-03T17:48:29.251Z,44.40
2018-03-03T17:51:04.007Z,36.73
2018-03-03T17:53:38.097Z,34.57
2018-03-03T17:56:12.467Z,30.40
2018-03-03T17:58:46.205Z,48.53
2018-03-03T18:01:19.808Z,32.87
2018-03-03T18:03:53.489Z,34.00
2018-03-03T18:06:27.871Z,43.90
2018-03-03T18:09:01.668Z,40.63
2018-03-03T18:11:35.523Z,38.10
2018-03-03T18:14:10.709Z,27.53
2018-03-03T18:16:45.559Z,45.90
2018-03-03T18:19:20.264Z,42.97
2018-03-03T18:21:54.252Z,45.67
2018-03-03T18:24:35.656Z,49.50
2018-03-03T18:27:09.612Z,41.83
2018-03-03T18:29:43.232Z,35.10
2018-03-03T18:32:17.071Z,26.80
2018-03-03T18:34:51.348Z,47.00
2018-03-03T18:37:25.777Z,38.47
2018-03-03T18:39:59.750Z,32.87
2018-03-03T18:42:33.667Z,45.60
2018-03-03T18:45:07.774Z,45.17
2018-03-03T18:47:45.151Z,45.60
2018-03-03T18:50:19.881Z,44.13
2018-03-03T18:52:53.799Z,46.43
2018-03-03T18:55:27.516Z,43.50
2018-03-03T18:58:01.316Z,32.70
2018-03-03T19:00:36.392Z,33.63
2018-03-03T19:03:10.456Z,31.50
2018-03-03T19:05:44.922Z,37.97
2018-03-03T19:08:18.871Z,29.03
2018-03-03T19:10:53.174Z,41.80
2018-03-03T19:13:26.937Z,37.83
2018-03-03T19:16:00.488Z,41.80
2018-03-03T19:18:34.975Z,44.73
2018-03-03T19:21:08.844Z,42.33
2018-03-03T19:23:43.618Z,41.50
2018-03-03T19:26:19.172Z,39.50
2018-03-03T19:28:53.939Z,34.00
2018-03-03T19:31:27.855Z,35.37
2018-03-03T19:34:01.750Z,47.53
2018-03-03T19:36:36.623Z,31.20
2018-03-03T19:39:10.499Z,39.40
2018-03-03T19:41:45.241Z,44.73
2018-03-03T19:44:20.522Z,44.60
2018-03-03T19:46:54.526Z,37.57
2018-03-03T19:49:28.408Z,33.43
2018-03-03T19:52:02.776Z,34.90
2018-03-03T19:54:36.681Z,28.00
2018-03-03T19:57:10.709Z,40.67
2018-03-03T19:59:45.034Z,41.33
2018-03-03T20:02:19.075Z,23.97
2018-03-03T20:04:53.304Z,40.20
2018-03-03T20:07:28.374Z,44.27
2018-03-03T20:10:02.678Z,37.43
2018-03-03T20:12:36.403Z,31.03
2018-03-03T20:15:10.697Z,34.77
2018-03-03T20:17:44.203Z,29.30
2018-03-03T20:20:18.587Z,38.43
2018-03-03T20:22:52.972Z,36.20
2018-03-03T20:25:26.636Z,49.27
2018-03-03T20:28:00.343Z,37.17
2018-03-03T20:30:34.975Z,34.60
2018-03-03T20:33:09.494Z,38.47
2018-03-03T20:35:43.522Z,43.23
2018-03-03T20:38:17.116Z,41.37
2018-03-03T20:40:51.909Z,29.27
2018-03-03T20:43:26.669Z,45.47
2018-03-03T20:46:00.747Z,33.53
2018-03-03T20:48:35.401Z,44.10
2018-03-03T20:51:09.232Z,33.10
2018-03-03T20:53:43.097Z,48.93
2018-03-03T20:56:16.711Z,35.30
2018-03-03T20:58:50.310Z,28.07
2018-03-03T21:01:25.531Z,42.10
2018-03-03T21:03:59.337Z,39.63
2018-03-03T21:06:33.780Z,36.70
2018-03-03T21:09:07.770Z,40.90
2018-03-03T21:11:52.212Z,42.60
2018-03-03T21:14:26.579Z,47.53
2018-03-03T21:17:01.799Z,46.77
2018-03-03T21:19:36.052Z,39.70
2018-03-03T21:22:10.766Z,27.97
2018-03-03T21:24:44.611Z,38.50
2018-03-03T21:27:18.970Z,57.17
2018-03-03T21:29:53.121Z,37.70
2018-03-03T21:32:26.776Z,35.33
2018-03-03T21:35:00.520Z,44.57
2018-03-03T21:37:34.741Z,36.37
2018-03-03T21:40:09.182Z,54.23
2018-03-03T21:42:43.036Z,46.63
2018-03-03T21:45:16.947Z,46.30
2018-03-03T21:47:50.586Z,43.60
2018-03-03T21:50:24.919Z,45.20
2018-03-03T21:52:58.877Z,50.67
2018-03-03T21:55:32.786Z,44.77
2018-03-03T21:58:08.598Z,40.43
2018-03-03T22:00:42.421Z,31.07
2018-03-03T22:03:17.779Z,45.70
2018-03-03T22:05:51.935Z,31.60
2018-03-03T22:08:25.880Z,44.33
2018-03-03T22:11:00.504Z,23.63
2018-03-03T22:13:34.660Z,39.97
2018-03-03T22:16:08.980Z,29.77
2018-03-03T22:18:43.061Z,39.67
2018-03-03T22:21:16.608Z,53.57
2018-03-03T22:23:50.952Z,44.27
2018-03-03T22:26:25.605Z,49.83
2018-03-03T22:29:00.063Z,38.40
2018-03-03T22:31:33.936Z,42.17
2018-03-03T22:34:07.507Z,116.00
2018-03-03T22:36:41.033Z,43.73
2018-03-03T22:39:14.719Z,35.93
2018-03-03T22:41:48.954Z,44.43
2018-03-03T22:44:23.333Z,53.23
2018-03-03T22:46:57.143Z,47.17
2018-03-03T22:49:31.596Z,50.03
2018-03-03T22:52:05.567Z,50.17
2018-03-03T22:54:40.797Z,34.67
2018-03-03T22:57:14.803Z,44.10
2018-03-03T22:59:49.372Z,41.30
2018-03-03T23:02:23.339Z,39.73
2018-03-03T23:04:57.816Z,31.70
2018-03-03T23:07:31.643Z,46.07
2018-03-03T23:10:06.112Z,39.27
2018-03-03T23:12:40.061Z,46.93
2018-03-03T23:15:13.807Z,44.93
2018-03-03T23:17:47.475Z,54.83
2018-03-03T23:20:21.129Z,36.30
2018-03-03T23:22:54.939Z,48.97
2018-03-03T23:25:28.503Z,53.20
2018-03-03T23:28:10.775Z,45.43
2018-03-03T23:30:44.740Z,54.83
2018-03-03T23:33:18.820Z,44.83
2018-03-03T23:35:53.139Z,55.80
2018-03-03T23:38:27.482Z,44.47
2018-03-03T23:41:01.662Z,53.83
2018-03-03T23:43:35.376Z,51.27
2018-03-03T23:46:09.874Z,53.83
2018-03-03T23:48:43.696Z,49.70
2018-03-03T23:51:17.286Z,48.00
2018-03-03T23:53:51.187Z,46.30
2018-03-03T23:56:24.818Z,54.90
2018-03-03T23:58:58.494Z,49.10
